Time;durP1;ratioP1;P1;durP2;ratioP2;P2;SDS_P1;SDS_P2;PMS_P1;PMS_P2;Temp;Humidity;BMP_temperature;BMP_pressure;BME280_temperature;BME280_humidity;BME280_pressure;Samples;Min_cycle;Max_cycle;Signal;HPM_P1;HPM_P2
2021/01/12 00:02:29;;;;;;;40.10;17.53;;;-0.60;99.90;;;;;;5289844;28;20208;-73
2021/01/12 00:05:01;;;;;;;38.63;16.80;;;-0.60;99.90;;;;;;5290113;28;20668;-73
2021/01/12 00:07:32;;;;;;;35.10;17.10;;;-0.60;99.90;;;;;;5281042;28;20237;-74
2021/01/12 00:10:06;;;;;;;37.90;16.97;;;-0.60;99.90;;;;;;5291230;28;20199;-73
2021/01/12 00:12:37;;;;;;;35.33;18.03;;;-0.60;99.90;;;;;;5291155;28;20197;-73
2021/01/12 00:15:09;;;;;;;35.83;17.17;;;-0.70;99.90;;;;;;5290133;28;20194;-74
2021/01/12 00:17:41;;;;;;;35.53;17.33;;;-0.70;99.90;;;;;;5271665;28;20653;-72
2021/01/12 00:20:12;;;;;;;35.97;16.87;;;-0.70;99.90;;;;;;5289966;28;20704;-72
2021/01/12 00:22:44;;;;;;;36.00;17.83;;;-0.70;99.90;;;;;;5289771;28;20195;-72
2021/01/12 00:25:16;;;;;;;38.27;18.70;;;-0.70;99.90;;;;;;5289638;28;20198;-73
2021/01/12 00:27:59;;;;;;;35.93;17.47;;;-0.70;99.90;;;;;;5290087;28;20195;-72
2021/01/12 00:30:30;;;;;;;36.37;17.27;;;-0.70;99.90;;;;;;5290422;28;20191;-72
2021/01/12 00:33:01;;;;;;;34.70;17.13;;;-0.70;99.90;;;;;;5289860;28;20215;-72
2021/01/12 00:35:33;;;;;;;32.30;16.10;;;-0.70;99.90;;;;;;5290552;28;20195;-74
2021/01/12 00:38:05;;;;;;;39.53;18.13;;;-0.70;99.90;;;;;;5205274;28;20292;-73
2021/01/12 00:40:36;;;;;;;33.27;16.63;;;-0.70;99.90;;;;;;5204446;28;20217;-72
2021/01/12 00:43:08;;;;;;;34.27;17.77;;;-0.70;99.90;;;;;;5204184;28;20201;-73
2021/01/12 00:45:40;;;;;;;33.30;18.00;;;-0.70;99.90;;;;;;5204082;28;20704;-73
2021/01/12 00:48:12;;;;;;;34.63;18.13;;;-0.70;99.90;;;;;;5204334;28;20657;-73
2021/01/12 00:54:39;;;;;;;33.00;16.47;;;-0.60;99.90;;;;;;5204556;28;20166;-72
2021/01/12 00:57:12;;;;;;;36.40;18.63;;;-0.60;99.90;;;;;;5281842;28;20573;-74
2021/01/12 00:59:45;;;;;;;34.83;18.03;;;-0.60;99.90;;;;;;5271606;28;20206;-74
2021/01/12 01:02:17;;;;;;;33.70;18.10;;;-0.60;99.90;;;;;;5289956;28;20230;-72
2021/01/12 01:04:48;;;;;;;37.50;18.93;;;-0.60;99.90;;;;;;5289331;28;20195;-75
2021/01/12 01:11:56;;;;;;;32.50;16.37;;;-0.60;99.90;;;;;;5268240;28;20188;-73
2021/01/12 01:14:28;;;;;;;36.03;17.67;;;-0.60;99.90;;;;;;5268148;28;20200;-73
2021/01/12 01:16:59;;;;;;;33.33;16.80;;;-0.60;99.90;;;;;;5268351;28;20246;-74
2021/01/12 01:19:31;;;;;;;37.73;17.53;;;-0.60;99.90;;;;;;5265827;28;20189;-73
2021/01/12 01:25:59;;;;;;;31.37;16.53;;;-0.60;99.90;;;;;;5265303;28;20218;-74
2021/01/12 01:28:30;;;;;;;41.47;19.10;;;-0.50;99.90;;;;;;5268094;28;20195;-76
2021/01/12 01:31:02;;;;;;;35.13;18.70;;;-0.50;99.90;;;;;;5272146;28;20210;-72
2021/01/12 01:33:33;;;;;;;34.03;17.80;;;-0.50;99.90;;;;;;5271979;28;20223;-72
2021/01/12 01:36:09;;;;;;;36.33;18.63;;;-0.50;99.90;;;;;;5271958;28;20238;-73
2021/01/12 01:38:41;;;;;;;38.57;19.17;;;-0.50;99.90;;;;;;5271963;28;20202;-72
2021/01/12 01:41:12;;;;;;;35.70;17.83;;;-0.50;99.90;;;;;;5271977;28;20555;-74
2021/01/12 01:43:43;;;;;;;39.63;18.47;;;-0.50;99.90;;;;;;5271748;28;20192;-72
2021/01/12 01:46:16;;;;;;;37.27;18.33;;;-0.40;99.90;;;;;;5270314;28;20234;-77
2021/01/12 01:48:48;;;;;;;36.93;18.33;;;-0.40;99.90;;;;;;5271400;28;20195;-72
2021/01/12 01:51:19;;;;;;;37.20;17.57;;;-0.40;99.90;;;;;;5272153;28;20203;-72
2021/01/12 01:53:51;;;;;;;36.27;17.90;;;-0.40;99.90;;;;;;5271550;28;20523;-76
2021/01/12 01:56:26;;;;;;;37.37;18.73;;;-0.40;99.90;;;;;;5271760;28;20202;-75
2021/01/12 01:58:57;;;;;;;37.00;17.30;;;-0.40;99.90;;;;;;5272038;28;20203;-76
2021/01/12 02:01:29;;;;;;;38.57;18.13;;;-0.40;99.90;;;;;;5270620;28;20204;-75
2021/01/12 02:04:37;;;;;;;41.93;18.63;;;-0.40;99.90;;;;;;5272031;28;20638;-72
2021/01/12 02:07:12;;;;;;;37.93;18.60;;;-0.30;99.90;;;;;;5272170;28;20302;-75
2021/01/12 02:09:53;;;;;;;32.43;17.20;;;-0.30;99.90;;;;;;5275225;28;20239;-75
2021/01/12 02:12:32;;;;;;;41.20;18.70;;;-0.30;99.90;;;;;;5293503;28;20230;-75
2021/01/12 02:15:04;;;;;;;36.07;17.53;;;-0.30;99.90;;;;;;5293000;28;20188;-73
2021/01/12 02:17:36;;;;;;;37.80;17.83;;;-0.30;99.90;;;;;;5293387;28;20206;-75
2021/01/12 02:20:08;;;;;;;37.57;17.83;;;-0.30;99.90;;;;;;5292934;28;20187;-77
2021/01/12 02:22:45;;;;;;;36.67;18.87;;;-0.30;99.90;;;;;;5293446;28;20191;-75
2021/01/12 02:25:17;;;;;;;38.23;18.53;;;-0.30;99.90;;;;;;5293708;28;20604;-76
2021/01/12 02:27:51;;;;;;;37.50;17.27;;;-0.30;99.90;;;;;;5293403;28;20546;-73
2021/01/12 02:30:23;;;;;;;34.00;17.20;;;-0.20;99.90;;;;;;5292576;28;20194;-73
2021/01/12 02:32:55;;;;;;;32.97;16.67;;;-0.20;99.90;;;;;;5292133;28;20192;-72
2021/01/12 02:35:29;;;;;;;33.23;17.93;;;-0.30;99.90;;;;;;5292555;28;20221;-73
2021/01/12 02:38:03;;;;;;;38.00;18.87;;;-0.20;99.90;;;;;;5293127;28;20541;-72
2021/01/12 02:40:35;;;;;;;37.07;18.00;;;-0.20;99.90;;;;;;5291797;28;20191;-74
2021/01/12 02:43:07;;;;;;;37.43;18.20;;;-0.20;99.90;;;;;;5292627;28;20570;-72
2021/01/12 02:45:38;;;;;;;35.07;17.77;;;-0.20;99.90;;;;;;5292623;28;20684;-73
2021/01/12 02:48:10;;;;;;;35.80;18.10;;;-0.20;99.90;;;;;;5292025;28;20199;-77
2021/01/12 02:50:41;;;;;;;32.47;16.90;;;-0.20;99.90;;;;;;5291714;28;20187;-74
2021/01/12 02:53:13;;;;;;;35.33;17.57;;;-0.20;99.90;;;;;;5291793;28;20196;-74
2021/01/12 02:55:44;;;;;;;37.40;17.33;;;-0.20;99.90;;;;;;5291719;28;20294;-76
2021/01/12 02:58:15;;;;;;;34.47;17.67;;;-0.20;99.90;;;;;;5291594;28;20222;-76
2021/01/12 03:00:46;;;;;;;34.70;17.50;;;-0.20;99.90;;;;;;5273897;28;20199;-76
2021/01/12 03:03:18;;;;;;;36.03;18.17;;;-0.20;99.90;;;;;;5291430;28;20188;-77
2021/01/12 03:05:50;;;;;;;34.13;18.33;;;-0.20;99.90;;;;;;5291768;28;20218;-75
2021/01/12 03:08:21;;;;;;;36.90;17.60;;;-0.20;99.90;;;;;;5291189;28;20210;-73
2021/01/12 03:10:53;;;;;;;33.20;16.70;;;-0.20;99.90;;;;;;5291505;28;20597;-72
2021/01/12 03:13:24;;;;;;;34.27;17.53;;;-0.20;99.90;;;;;;5291935;28;20209;-74
2021/01/12 03:15:55;;;;;;;34.70;17.33;;;-0.20;99.90;;;;;;5291420;28;20211;-74
2021/01/12 03:18:27;;;;;;;35.93;18.03;;;-0.20;99.90;;;;;;5291356;28;20194;-74
2021/01/12 03:20:59;;;;;;;33.10;17.07;;;-0.10;99.90;;;;;;5291342;28;20191;-75
2021/01/12 03:23:30;;;;;;;34.70;17.50;;;-0.20;99.90;;;;;;5291270;28;20188;-75
2021/01/12 03:26:01;;;;;;;39.27;18.33;;;-0.10;99.90;;;;;;5291232;28;20215;-73
2021/01/12 03:28:33;;;;;;;36.10;18.53;;;-0.20;99.90;;;;;;5291043;28;20279;-73
2021/01/12 03:31:05;;;;;;;33.60;16.73;;;-0.10;99.90;;;;;;5291714;28;20202;-76
2021/01/12 03:33:37;;;;;;;33.73;17.47;;;-0.10;99.90;;;;;;5291376;28;20541;-75
2021/01/12 03:36:08;;;;;;;33.80;16.57;;;-0.10;99.90;;;;;;5292498;28;20294;-75
2021/01/12 03:38:40;;;;;;;32.10;16.97;;;-0.10;99.90;;;;;;5292765;28;20192;-76
2021/01/12 03:41:11;;;;;;;32.47;16.33;;;-0.10;99.90;;;;;;5292643;28;20199;-78
2021/01/12 03:43:43;;;;;;;33.20;16.40;;;-0.10;99.90;;;;;;5291680;28;20199;-79
2021/01/12 03:46:19;;;;;;;35.43;17.37;;;-0.10;99.90;;;;;;5273689;28;20313;-76
2021/01/12 03:48:52;;;;;;;35.33;17.27;;;-0.10;99.90;;;;;;5291167;28;20188;-75
2021/01/12 03:51:27;;;;;;;32.67;16.03;;;-0.10;99.90;;;;;;5289880;28;20199;-76
2021/01/12 03:53:58;;;;;;;35.03;16.30;;;-0.10;99.90;;;;;;5291009;28;20200;-74
2021/01/12 03:56:30;;;;;;;33.37;16.90;;;-0.10;99.90;;;;;;5290934;28;20188;-76
2021/01/12 03:59:01;;;;;;;33.80;17.33;;;-0.10;99.90;;;;;;5290963;28;20213;-75
2021/01/12 04:01:33;;;;;;;33.23;16.63;;;-0.10;99.90;;;;;;5292462;28;20206;-76
2021/01/12 04:04:04;;;;;;;35.50;16.90;;;-0.10;99.90;;;;;;5292628;28;20187;-77
2021/01/12 04:06:36;;;;;;;31.83;16.27;;;-0.10;99.90;;;;;;5292047;28;20223;-75
2021/01/12 04:09:08;;;;;;;33.23;16.77;;;-0.10;99.90;;;;;;5291222;28;20187;-74
2021/01/12 04:11:39;;;;;;;31.00;16.10;;;-0.10;99.90;;;;;;5290613;28;20235;-74
2021/01/12 04:14:11;;;;;;;33.80;16.23;;;-0.10;99.90;;;;;;5290418;28;20265;-74
2021/01/12 04:16:42;;;;;;;35.13;17.03;;;-0.10;99.90;;;;;;5290310;28;20203;-73
2021/01/12 04:19:14;;;;;;;33.77;17.00;;;-0.10;99.90;;;;;;5290592;28;20556;-74
2021/01/12 04:21:45;;;;;;;34.80;16.97;;;-0.10;99.90;;;;;;5290553;28;20191;-77
2021/01/12 04:24:17;;;;;;;34.83;17.33;;;-0.10;99.90;;;;;;5290474;28;20190;-77
2021/01/12 04:26:48;;;;;;;31.87;16.03;;;-0.10;99.90;;;;;;5290509;28;20230;-76
2021/01/12 04:29:19;;;;;;;34.00;17.27;;;0.00;99.90;;;;;;5291580;28;20207;-72
2021/01/12 04:31:51;;;;;;;33.93;16.73;;;0.00;99.90;;;;;;5291311;28;20208;-75
2021/01/12 04:34:22;;;;;;;31.20;16.27;;;0.00;99.90;;;;;;5290658;28;20249;-75
2021/01/12 04:40:49;;;;;;;30.23;15.97;;;0.00;99.90;;;;;;5290579;28;20177;-73
2021/01/12 04:43:21;;;;;;;36.70;16.20;;;0.00;99.90;;;;;;5290971;28;20233;-75
2021/01/12 04:45:52;;;;;;;32.40;16.57;;;0.00;99.90;;;;;;5290343;28;20222;-74
2021/01/12 04:48:24;;;;;;;31.10;15.87;;;0.00;99.90;;;;;;5272183;28;20195;-73
2021/01/12 04:51:08;;;;;;;34.10;15.90;;;0.00;99.90;;;;;;5290478;28;20638;-75
2021/01/12 04:57:35;;;;;;;32.53;15.93;;;0.00;99.90;;;;;;5290402;28;20171;-73
2021/01/12 05:00:18;;;;;;;33.10;16.33;;;0.00;99.90;;;;;;5290492;28;20222;-71
2021/01/12 05:03:02;;;;;;;31.53;15.93;;;0.00;99.90;;;;;;5292909;28;20210;-75
2021/01/12 05:05:40;;;;;;;33.40;16.23;;;0.00;99.90;;;;;;5295289;28;20221;-74
2021/01/12 05:08:17;;;;;;;33.97;16.80;;;0.00;99.90;;;;;;5295073;28;20198;-72
2021/01/12 05:10:50;;;;;;;30.43;16.23;;;0.10;99.90;;;;;;5293636;28;20235;-73
2021/01/12 05:13:26;;;;;;;34.60;17.27;;;0.00;99.90;;;;;;5293855;28;20199;-74
2021/01/12 05:16:04;;;;;;;30.17;15.20;;;0.10;99.90;;;;;;5294315;28;20197;-76
2021/01/12 05:18:41;;;;;;;38.17;17.53;;;0.10;99.90;;;;;;5294831;28;20245;-76
2021/01/12 05:21:15;;;;;;;34.10;16.60;;;0.10;99.90;;;;;;5276508;28;20191;-74
2021/01/12 05:24:08;;;;;;;32.80;16.80;;;0.10;99.90;;;;;;5295111;28;20198;-77
2021/01/12 05:26:40;;;;;;;33.43;17.20;;;0.10;99.90;;;;;;5293543;28;20608;-73
2021/01/12 05:29:12;;;;;;;34.07;17.67;;;0.10;99.90;;;;;;5293613;28;20195;-74
2021/01/12 05:31:46;;;;;;;34.23;16.90;;;0.10;99.90;;;;;;5293699;28;20587;-75
2021/01/12 05:34:19;;;;;;;34.93;16.40;;;0.10;99.90;;;;;;5276056;28;20277;-76
2021/01/12 05:36:53;;;;;;;34.63;17.80;;;0.10;99.90;;;;;;5293417;28;20199;-74
2021/01/12 05:39:25;;;;;;;31.83;16.63;;;0.10;99.90;;;;;;5293720;28;20549;-74
2021/01/12 05:42:03;;;;;;;32.00;15.50;;;0.10;99.90;;;;;;5293267;28;20191;-74
2021/01/12 05:44:37;;;;;;;35.70;17.87;;;0.10;99.90;;;;;;5275485;28;20192;-76
2021/01/12 05:47:15;;;;;;;33.63;17.43;;;0.10;99.90;;;;;;5293516;28;20705;-75
2021/01/12 05:49:51;;;;;;;34.80;17.53;;;0.10;99.90;;;;;;5293445;28;20597;-73
2021/01/12 05:56:21;;;;;;;34.03;16.40;;;0.10;99.90;;;;;;5293220;28;20189;-74
2021/01/12 05:58:54;;;;;;;32.37;16.73;;;0.10;99.90;;;;;;5293214;28;20200;-73
2021/01/12 06:01:35;;;;;;;32.37;16.43;;;0.00;99.90;;;;;;5293312;28;20195;-72
2021/01/12 06:04:11;;;;;;;33.53;17.33;;;0.10;99.90;;;;;;5293143;28;20286;-76
2021/01/12 06:06:45;;;;;;;33.37;16.67;;;0.10;99.90;;;;;;5293181;28;20579;-74
2021/01/12 06:13:52;;;;;;;37.47;16.73;;;0.10;99.90;;;;;;5292683;28;20305;-74
2021/01/12 06:16:24;;;;;;;31.30;15.93;;;0.00;99.90;;;;;;5274231;28;20196;-74
2021/01/12 06:19:19;;;;;;;33.07;17.23;;;0.10;99.90;;;;;;5293319;28;20195;-73
2021/01/12 06:21:56;;;;;;;33.63;16.97;;;0.00;99.90;;;;;;5297931;28;20622;-75
2021/01/12 06:28:13;;;;;;;33.90;17.23;;;0.00;99.90;;;;;;5293399;28;20267;-77
2021/01/12 06:30:45;;;;;;;36.43;18.33;;;0.00;99.90;;;;;;5292590;28;20188;-76
2021/01/12 06:33:16;;;;;;;38.57;17.87;;;0.00;99.90;;;;;;5292614;28;20200;-73
2021/01/12 06:35:50;;;;;;;33.33;16.87;;;0.00;99.90;;;;;;5294476;28;20551;-81
2021/01/12 06:38:27;;;;;;;36.93;17.53;;;0.10;99.90;;;;;;5293407;28;20199;-76
2021/01/12 06:41:01;;;;;;;40.03;18.13;;;0.00;99.90;;;;;;5293413;28;20188;-78
2021/01/12 06:43:32;;;;;;;33.73;17.63;;;0.10;99.90;;;;;;5292001;28;20195;-74
2021/01/12 06:46:05;;;;;;;31.10;16.40;;;0.10;99.90;;;;;;5292321;28;20222;-76
2021/01/12 06:48:44;;;;;;;32.57;16.40;;;0.10;99.90;;;;;;5291136;28;20301;-76
2021/01/12 06:51:15;;;;;;;33.97;17.37;;;0.10;99.90;;;;;;5292771;28;20199;-74
2021/01/12 06:53:47;;;;;;;33.97;17.20;;;0.10;99.90;;;;;;5291995;28;20203;-75
2021/01/12 06:56:32;;;;;;;30.93;16.63;;;0.10;99.90;;;;;;5291431;28;20199;-74
2021/01/12 06:59:37;;;;;;;38.97;17.47;;;0.10;99.90;;;;;;5291848;28;20210;-74
2021/01/12 07:02:26;;;;;;;39.97;18.00;;;0.10;99.90;;;;;;5291073;28;20187;-77
2021/01/12 07:05:11;;;;;;;32.77;16.40;;;0.10;99.90;;;;;;5276929;28;20195;-75
2021/01/12 07:11:38;;;;;;;32.37;15.43;;;0.10;99.90;;;;;;5291704;28;20229;-75
2021/01/12 07:14:09;;;;;;;29.73;15.67;;;0.10;99.90;;;;;;5291560;28;20188;-75
2021/01/12 07:16:40;;;;;;;30.87;16.27;;;0.10;99.90;;;;;;5291548;28;20191;-77
2021/01/12 07:19:16;;;;;;;32.97;16.17;;;0.10;99.90;;;;;;5291504;28;20657;-78
2021/01/12 07:21:48;;;;;;;31.57;15.80;;;0.10;99.90;;;;;;5291773;28;20641;-75
2021/01/12 07:28:19;;;;;;;30.13;15.53;;;0.20;99.90;;;;;;5292950;28;20187;-78
2021/01/12 07:30:55;;;;;;;30.07;15.50;;;0.20;99.90;;;;;;5291484;28;20187;-76
2021/01/12 07:33:29;;;;;;;27.80;14.90;;;0.20;99.90;;;;;;5290966;28;20195;-77
2021/01/12 07:36:01;;;;;;;26.70;13.83;;;0.20;99.90;;;;;;5291384;28;20188;-78
2021/01/12 07:38:34;;;;;;;29.93;14.80;;;0.20;99.90;;;;;;5291277;28;20208;-78
2021/01/12 07:41:06;;;;;;;31.70;15.47;;;0.20;99.90;;;;;;5295798;28;20566;-75
2021/01/12 07:43:37;;;;;;;31.47;16.93;;;0.20;99.90;;;;;;5296140;28;20279;-74
2021/01/12 07:46:09;;;;;;;27.77;14.17;;;0.20;99.90;;;;;;5290991;28;20566;-75
2021/01/12 07:48:41;;;;;;;29.77;14.90;;;0.20;99.90;;;;;;5291399;28;20195;-76
2021/01/12 07:51:12;;;;;;;27.67;14.50;;;0.30;99.90;;;;;;5298512;28;20199;-73
2021/01/12 07:53:46;;;;;;;31.50;16.10;;;0.30;99.90;;;;;;5301111;28;20194;-73
2021/01/12 07:56:18;;;;;;;31.77;15.93;;;0.30;99.90;;;;;;5293131;28;20192;-75
2021/01/12 07:58:50;;;;;;;34.10;16.83;;;0.30;99.90;;;;;;5291642;28;20195;-74
2021/01/12 08:01:27;;;;;;;32.03;16.27;;;0.30;99.90;;;;;;5292831;28;20199;-74
2021/01/12 08:03:59;;;;;;;33.37;15.53;;;0.30;99.90;;;;;;5292354;28;20603;-74
2021/01/12 08:06:48;;;;;;;28.27;14.43;;;0.30;99.90;;;;;;5291640;28;20686;-75
2021/01/12 08:09:24;;;;;;;26.70;14.93;;;0.40;99.90;;;;;;5290405;28;20198;-76
2021/01/12 08:12:05;;;;;;;29.90;13.97;;;0.40;99.90;;;;;;5290265;28;20231;-74
2021/01/12 08:14:36;;;;;;;29.27;15.03;;;0.40;99.90;;;;;;5290487;28;20273;-75
2021/01/12 08:17:08;;;;;;;27.03;13.87;;;0.50;99.90;;;;;;5275843;28;20289;-75
2021/01/12 08:19:41;;;;;;;28.27;13.93;;;0.50;99.90;;;;;;5285842;28;20599;-74
2021/01/12 08:22:16;;;;;;;30.20;14.17;;;0.50;99.90;;;;;;5289514;28;20614;-76
2021/01/12 08:24:48;;;;;;;28.20;14.17;;;0.60;99.90;;;;;;5289796;28;20528;-75
2021/01/12 08:27:24;;;;;;;26.93;13.90;;;0.60;99.90;;;;;;5290610;28;20285;-77
2021/01/12 08:30:08;;;;;;;25.30;14.20;;;0.60;99.90;;;;;;5272687;28;20195;-77
2021/01/12 08:32:45;;;;;;;27.73;14.07;;;0.60;99.90;;;;;;5290479;28;20188;-74
2021/01/12 08:35:18;;;;;;;27.33;13.40;;;0.60;99.90;;;;;;5291537;28;20222;-78
2021/01/12 08:41:48;;;;;;;23.10;12.90;;;0.70;99.90;;;;;;5296262;28;20250;-75
2021/01/12 08:44:21;;;;;;;22.17;12.07;;;0.70;99.90;;;;;;5277580;28;20187;-74
2021/01/12 08:46:54;;;;;;;25.03;13.43;;;0.80;99.90;;;;;;5295325;28;20222;-74
2021/01/12 08:49:30;;;;;;;23.33;12.90;;;0.80;99.90;;;;;;5295953;28;20201;-71
2021/01/12 08:52:05;;;;;;;23.67;12.77;;;0.80;99.90;;;;;;5297664;28;20187;-74
2021/01/12 08:58:33;;;;;;;25.97;13.47;;;0.90;99.90;;;;;;5294219;28;20173;-73
2021/01/12 09:01:05;;;;;;;23.47;12.77;;;0.90;99.90;;;;;;5294367;28;20192;-72
2021/01/12 09:03:42;;;;;;;23.60;12.77;;;0.90;99.90;;;;;;5294189;28;20200;-72
2021/01/12 09:06:19;;;;;;;22.03;12.37;;;0.90;99.90;;;;;;5294313;28;20710;-72
2021/01/12 09:08:51;;;;;;;21.60;12.90;;;0.90;99.90;;;;;;5294014;28;20199;-73
2021/01/12 09:11:23;;;;;;;25.30;12.70;;;0.90;99.90;;;;;;5275119;28;20227;-73
2021/01/12 09:13:55;;;;;;;23.13;13.37;;;1.00;99.90;;;;;;5273032;28;20275;-73
2021/01/12 09:16:27;;;;;;;19.33;12.30;;;1.00;99.90;;;;;;5294191;28;20564;-71
2021/01/12 09:18:59;;;;;;;24.43;12.60;;;1.00;99.90;;;;;;5294204;28;20198;-72
2021/01/12 09:21:30;;;;;;;20.63;11.93;;;1.00;99.90;;;;;;5294376;28;20582;-75
2021/01/12 09:24:02;;;;;;;23.53;12.63;;;1.10;99.90;;;;;;5294745;28;20187;-75
2021/01/12 09:26:35;;;;;;;24.47;12.40;;;1.10;99.90;;;;;;5295931;28;20649;-73
2021/01/12 09:29:08;;;;;;;19.43;11.17;;;1.10;99.90;;;;;;5277267;28;20206;-73
2021/01/12 09:31:47;;;;;;;20.13;11.87;;;1.10;99.90;;;;;;5295718;28;20209;-75
2021/01/12 09:34:20;;;;;;;21.93;11.77;;;1.10;99.90;;;;;;5296254;28;20191;-76
2021/01/12 09:36:51;;;;;;;22.30;11.47;;;1.10;99.90;;;;;;5296254;28;20668;-75
2021/01/12 09:39:26;;;;;;;19.70;11.83;;;1.20;99.90;;;;;;5296636;28;20196;-73
2021/01/12 09:41:58;;;;;;;21.23;11.73;;;1.20;99.90;;;;;;5295797;28;20191;-76
2021/01/12 09:44:29;;;;;;;20.60;11.30;;;1.20;99.90;;;;;;5294887;28;20202;-73
2021/01/12 09:47:01;;;;;;;20.63;10.93;;;1.20;99.90;;;;;;5300706;28;20314;-72
2021/01/12 09:49:33;;;;;;;20.10;11.17;;;1.20;99.90;;;;;;5295183;28;20203;-74
2021/01/12 09:52:04;;;;;;;20.87;11.20;;;1.20;99.90;;;;;;5295924;28;20195;-74
2021/01/12 09:54:40;;;;;;;17.17;10.43;;;1.20;99.90;;;;;;5296188;28;20202;-74
2021/01/12 09:57:13;;;;;;;20.87;11.50;;;1.20;99.90;;;;;;5296205;28;20195;-73
2021/01/12 09:59:45;;;;;;;17.67;10.83;;;1.20;99.90;;;;;;5295055;28;20187;-75
2021/01/12 10:02:16;;;;;;;17.83;10.30;;;1.20;99.90;;;;;;5294048;28;20217;-75
2021/01/12 10:04:47;;;;;;;22.40;10.07;;;1.20;99.90;;;;;;5293495;28;20219;-76
2021/01/12 10:07:21;;;;;;;17.23;10.70;;;1.20;99.90;;;;;;5293512;28;20735;-71
2021/01/12 10:09:52;;;;;;;16.80;10.03;;;1.30;99.90;;;;;;5301612;28;20198;-73
2021/01/12 10:12:23;;;;;;;16.20;10.73;;;1.30;99.90;;;;;;5294251;28;20239;-73
2021/01/12 10:14:55;;;;;;;18.00;10.47;;;1.30;99.90;;;;;;5293474;28;20639;-74
2021/01/12 10:17:26;;;;;;;17.17;10.87;;;1.30;99.90;;;;;;5293591;28;20199;-74
2021/01/12 10:19:58;;;;;;;20.00;11.20;;;1.30;99.90;;;;;;5293356;28;20191;-73
2021/01/12 10:22:29;;;;;;;16.27;10.37;;;1.30;99.90;;;;;;5293752;28;20192;-75
2021/01/12 10:25:01;;;;;;;17.10;9.90;;;1.40;99.90;;;;;;5293779;28;20221;-76
2021/01/12 10:27:34;;;;;;;20.63;10.17;;;1.40;99.90;;;;;;5276627;28;20528;-75
2021/01/12 10:30:06;;;;;;;17.87;9.37;;;1.50;99.90;;;;;;5293992;28;20556;-76
2021/01/12 10:32:41;;;;;;;17.60;10.00;;;1.50;99.90;;;;;;5293828;28;20192;-74
2021/01/12 10:35:14;;;;;;;14.07;9.50;;;1.50;99.90;;;;;;5275740;28;20274;-74
2021/01/12 10:37:46;;;;;;;16.63;9.30;;;1.50;99.90;;;;;;5274797;28;20187;-75
2021/01/12 10:40:18;;;;;;;16.43;9.10;;;1.50;99.90;;;;;;5293689;28;20188;-74
2021/01/12 10:42:52;;;;;;;18.53;9.70;;;1.60;99.90;;;;;;5293081;28;20230;-71
2021/01/12 10:45:23;;;;;;;18.77;9.63;;;1.60;99.90;;;;;;5294463;28;20360;-76
2021/01/12 10:47:56;;;;;;;19.37;10.13;;;1.70;99.90;;;;;;5293527;28;20222;-71
2021/01/12 10:50:27;;;;;;;16.00;9.07;;;1.70;99.90;;;;;;5293750;28;20194;-71
2021/01/12 10:52:59;;;;;;;16.97;9.23;;;1.70;99.90;;;;;;5274495;28;20195;-72
2021/01/12 10:55:31;;;;;;;14.27;8.70;;;1.70;99.90;;;;;;5291551;28;20247;-72
2021/01/12 10:58:02;;;;;;;16.23;8.57;;;1.80;99.90;;;;;;5292012;28;20252;-71
2021/01/12 11:00:34;;;;;;;15.23;8.63;;;1.80;99.90;;;;;;5291169;28;20194;-74
2021/01/12 11:03:07;;;;;;;12.27;8.47;;;1.80;99.90;;;;;;5291896;28;20196;-71
2021/01/12 11:05:42;;;;;;;17.00;8.20;;;1.80;99.90;;;;;;5291645;28;20199;-72
2021/01/12 11:12:05;;;;;;;13.90;7.80;;;1.80;99.90;;;;;;5293545;28;20314;-76
2021/01/12 11:14:37;;;;;;;12.10;7.47;;;1.80;99.90;;;;;;5294149;28;20184;-72
2021/01/12 11:17:12;;;;;;;11.13;7.63;;;1.80;99.90;;;;;;5291923;28;20195;-74
2021/01/12 11:19:44;;;;;;;13.03;7.70;;;1.80;99.90;;;;;;5291367;28;20201;-75
2021/01/12 11:22:15;;;;;;;12.10;7.53;;;1.80;99.90;;;;;;5291611;28;20198;-76
2021/01/12 11:28:32;;;;;;;11.67;8.00;;;1.90;99.90;;;;;;5291656;28;20208;-74
2021/01/12 11:31:04;;;;;;;13.07;8.53;;;2.00;99.90;;;;;;5291497;28;20196;-71
2021/01/12 11:33:36;;;;;;;12.73;8.07;;;2.10;99.90;;;;;;5257356;28;20257;-72
2021/01/12 11:36:08;;;;;;;13.43;8.33;;;2.10;99.90;;;;;;5273452;28;20238;-80
2021/01/12 11:38:43;;;;;;;11.17;7.33;;;2.00;99.90;;;;;;5291906;28;20188;-79
2021/01/12 11:41:17;;;;;;;9.17;6.83;;;2.10;99.90;;;;;;5291838;28;20195;-73
2021/01/12 11:43:50;;;;;;;9.57;6.93;;;2.10;99.90;;;;;;5292188;28;20190;-78
2021/01/12 11:46:32;;;;;;;15.50;7.23;;;2.10;99.90;;;;;;5291372;28;20405;-71
2021/01/12 11:49:04;;;;;;;10.80;6.83;;;2.00;99.90;;;;;;5291166;28;20188;-72
2021/01/12 11:51:36;;;;;;;13.43;7.30;;;2.10;99.90;;;;;;5291051;28;20343;-70
2021/01/12 11:54:09;;;;;;;11.43;7.27;;;2.10;99.90;;;;;;5273751;28;20192;-76
2021/01/12 11:56:41;;;;;;;11.83;7.37;;;2.10;99.90;;;;;;5274179;28;20553;-77
2021/01/12 11:59:12;;;;;;;10.37;7.03;;;2.10;99.90;;;;;;5292905;28;20190;-77
2021/01/12 12:01:48;;;;;;;12.53;6.73;;;2.10;99.90;;;;;;5290765;28;20206;-77
2021/01/12 12:04:25;;;;;;;11.97;6.93;;;2.20;99.90;;;;;;5291268;28;20192;-77
2021/01/12 12:07:00;;;;;;;10.77;6.90;;;2.20;99.90;;;;;;5268968;28;20226;-79
2021/01/12 12:09:56;;;;;;;10.23;6.90;;;2.20;99.90;;;;;;5218734;28;20238;-75
2021/01/12 12:12:47;;;;;;;11.83;7.03;;;2.30;99.90;;;;;;5165496;28;20231;-77
2021/01/12 12:15:40;;;;;;;9.90;6.97;;;2.30;99.90;;;;;;5158040;28;20254;-78
2021/01/12 12:18:23;;;;;;;9.77;6.40;;;2.30;99.90;;;;;;5156608;28;20380;-75
2021/01/12 12:21:04;;;;;;;9.20;6.27;;;2.40;99.90;;;;;;5282551;28;20191;-74
2021/01/12 12:23:36;;;;;;;12.00;6.43;;;2.30;99.90;;;;;;5289476;28;20199;-75
2021/01/12 12:26:14;;;;;;;11.87;6.47;;;2.30;99.90;;;;;;5291612;28;20191;-78
2021/01/12 12:28:46;;;;;;;10.97;6.83;;;2.30;99.90;;;;;;5292073;28;20218;-76
2021/01/12 12:31:17;;;;;;;9.57;6.30;;;2.30;99.90;;;;;;5293791;28;20192;-75
2021/01/12 12:33:51;;;;;;;10.57;6.10;;;2.20;99.90;;;;;;5262950;28;20432;-71
2021/01/12 12:36:28;;;;;;;9.37;6.13;;;2.20;99.90;;;;;;5228536;28;20213;-72
2021/01/12 12:43:12;;;;;;;10.60;6.60;;;2.20;99.90;;;;;;5288999;28;20229;-72
2021/01/12 12:45:43;;;;;;;11.47;6.57;;;2.20;99.90;;;;;;5289540;28;20193;-77
2021/01/12 12:48:17;;;;;;;10.17;6.97;;;2.10;99.90;;;;;;5281067;28;20223;-73
2021/01/12 12:50:51;;;;;;;10.63;6.80;;;2.10;99.90;;;;;;5291480;28;20183;-75
2021/01/12 12:53:25;;;;;;;11.43;6.70;;;2.10;99.90;;;;;;5285410;28;20206;-71
2021/01/12 12:59:50;;;;;;;12.50;6.50;;;2.10;99.90;;;;;;5161206;28;20203;-73
2021/01/12 13:02:31;;;;;;;11.03;7.13;;;2.10;99.90;;;;;;5141165;28;20199;-75
2021/01/12 13:05:34;;;;;;;10.37;6.67;;;2.00;99.90;;;;;;5155504;28;20218;-74
2021/01/12 13:08:17;;;;;;;11.20;7.40;;;2.00;99.90;;;;;;5176209;28;20234;-74
2021/01/12 13:11:04;;;;;;;9.63;6.80;;;2.00;99.90;;;;;;5158990;28;20306;-74
2021/01/12 13:13:40;;;;;;;11.33;7.13;;;2.00;99.90;;;;;;5229714;28;20274;-77
2021/01/12 13:16:11;;;;;;;11.97;6.80;;;2.00;99.90;;;;;;5290458;28;20184;-78
2021/01/12 13:18:51;;;;;;;9.20;6.33;;;2.00;99.90;;;;;;5292246;28;20190;-79
2021/01/12 13:21:23;;;;;;;9.53;6.70;;;2.00;99.90;;;;;;5292882;28;20195;-78
2021/01/12 13:23:54;;;;;;;9.60;7.13;;;2.00;99.90;;;;;;5294064;28;20270;-77
2021/01/12 13:26:26;;;;;;;13.37;7.40;;;2.00;99.90;;;;;;5296161;28;20200;-77
2021/01/12 13:28:59;;;;;;;11.17;6.87;;;2.00;99.90;;;;;;5276050;28;20192;-79
2021/01/12 13:31:30;;;;;;;10.53;6.63;;;2.00;99.90;;;;;;5294121;28;20260;-74
2021/01/12 13:34:12;;;;;;;11.63;6.23;;;2.00;99.90;;;;;;5201829;28;20223;-75
2021/01/12 13:37:14;;;;;;;11.63;6.90;;;1.90;99.90;;;;;;5136684;28;20195;-73
2021/01/12 13:43:51;;;;;;;12.63;7.40;;;1.80;99.90;;;;;;5201020;28;20168;-75
2021/01/12 13:49:04;;;;;;;14.13;8.07;;;1.80;99.90;;;;;;5294276;22;20691;-72
2021/01/12 13:51:43;;;;;;;11.80;7.63;;;1.80;99.90;;;;;;5211555;28;20197;-73
2021/01/12 13:54:21;;;;;;;13.60;7.50;;;1.80;99.90;;;;;;5247676;28;20199;-74
2021/01/12 13:56:59;;;;;;;11.50;7.37;;;1.70;99.90;;;;;;5232223;28;20208;-73
2021/01/12 13:59:35;;;;;;;15.43;7.83;;;1.70;99.90;;;;;;5238755;28;20208;-73
2021/01/12 14:02:12;;;;;;;11.30;7.50;;;1.70;99.90;;;;;;5243242;28;20232;-73
2021/01/12 14:04:44;;;;;;;13.67;8.50;;;1.60;99.90;;;;;;5230983;28;20296;-75
2021/01/12 14:07:16;;;;;;;13.50;8.70;;;1.60;99.90;;;;;;5247389;28;20216;-74
2021/01/12 14:09:48;;;;;;;14.57;8.77;;;1.60;99.90;;;;;;5249297;28;20635;-75
2021/01/12 14:12:22;;;;;;;16.47;9.10;;;1.50;99.90;;;;;;5251469;28;20189;-73
2021/01/12 14:14:54;;;;;;;15.83;9.03;;;1.50;99.90;;;;;;5248361;28;20544;-75
2021/01/12 14:17:27;;;;;;;17.73;8.93;;;1.50;99.90;;;;;;5246442;28;20529;-72
2021/01/12 14:20:16;;;;;;;15.23;8.90;;;1.50;99.90;;;;;;5247017;28;20189;-72
2021/01/12 14:22:52;;;;;;;17.90;9.83;;;1.50;99.90;;;;;;5245915;28;20819;-72